createdAt,value
2023-02-11T00:00:42.642Z,-5.93
2023-02-11T00:03:09.738Z,-6.01
2023-02-11T00:05:37.141Z,-6.08
2023-02-11T00:08:03.815Z,-6.09
2023-02-11T00:10:30.499Z,-6.09
2023-02-11T00:12:57.178Z,-6.08
2023-02-11T00:15:23.796Z,-5.98
2023-02-11T00:17:50.353Z,-5.78
2023-02-11T00:20:16.999Z,-5.68
2023-02-11T00:22:43.797Z,-5.74
2023-02-11T00:25:10.569Z,-5.93
2023-02-11T00:27:37.818Z,-6.01
2023-02-11T00:30:05.468Z,-6.21
2023-02-11T00:32:32.386Z,-6.23
2023-02-11T00:34:58.950Z,-6.42
2023-02-11T00:37:25.543Z,-6.40
2023-02-11T00:39:52.205Z,-6.33
2023-02-11T00:42:19.871Z,-6.34
2023-02-11T00:44:46.427Z,-6.23
2023-02-11T00:47:13.009Z,-6.31
2023-02-11T00:49:40.457Z,-6.49
2023-02-11T00:52:07.351Z,-6.52
2023-02-11T00:54:33.917Z,-6.47
2023-02-11T00:57:00.676Z,-6.46
2023-02-11T00:59:27.364Z,-6.41
2023-02-11T01:01:53.981Z,-6.26
2023-02-11T01:04:20.589Z,-6.30
2023-02-11T01:06:47.191Z,-6.30
2023-02-11T01:09:13.895Z,-6.27
2023-02-11T01:11:40.502Z,-6.37
2023-02-11T01:14:07.045Z,-6.28
2023-02-11T01:16:33.628Z,-6.25
2023-02-11T01:19:00.250Z,-6.18
2023-02-11T01:21:26.862Z,-6.04
2023-02-11T01:23:53.501Z,-5.93
2023-02-11T01:26:20.305Z,-5.85
2023-02-11T01:28:47.000Z,-5.82
2023-02-11T01:31:14.291Z,-5.84
2023-02-11T01:33:41.026Z,-6.05
2023-02-11T01:36:08.204Z,-6.19
2023-02-11T01:38:35.510Z,-6.14
2023-02-11T01:41:05.922Z,-6.30
2023-02-11T01:43:35.908Z,-6.89
2023-02-11T01:46:20.116Z,-6.90
2023-02-11T01:48:55.458Z,-6.80
2023-02-11T01:51:27.379Z,-6.87
2023-02-11T01:54:14.407Z,-7.14
2023-02-11T01:57:05.815Z,-7.09
2023-02-11T01:59:46.023Z,-7.10
2023-02-11T02:02:15.782Z,-7.34
2023-02-11T02:05:05.183Z,-7.19
2023-02-11T02:07:39.066Z,-7.17
2023-02-11T02:10:13.542Z,-7.23
2023-02-11T02:12:40.108Z,-7.25
2023-02-11T02:15:22.221Z,-7.12
2023-02-11T02:18:17.374Z,-7.19
2023-02-11T02:21:02.693Z,-7.13
2023-02-11T02:24:04.682Z,-7.18
2023-02-11T02:26:37.296Z,-7.29
2023-02-11T02:29:22.395Z,-7.31
2023-02-11T02:32:11.740Z,-7.38
2023-02-11T02:34:58.520Z,-7.65
2023-02-11T02:37:33.085Z,-8.01
2023-02-11T02:40:07.621Z,-8.18
2023-02-11T02:42:34.610Z,-8.06
2023-02-11T02:45:01.323Z,-8.07
2023-02-11T02:47:28.058Z,-8.36
2023-02-11T02:49:54.594Z,-8.45
2023-02-11T02:52:30.133Z,-8.16
2023-02-11T02:55:17.927Z,-7.98
2023-02-11T02:58:11.886Z,-7.81
2023-02-11T03:00:52.847Z,-7.81
2023-02-11T03:03:26.721Z,-7.86
2023-02-11T03:06:22.460Z,-7.92
2023-02-11T03:09:01.583Z,-7.81
2023-02-11T03:11:29.245Z,-7.83
2023-02-11T03:13:57.473Z,-7.76
2023-02-11T03:16:27.861Z,-7.81
2023-02-11T03:19:06.667Z,-8.17
2023-02-11T03:21:36.573Z,-8.37
2023-02-11T03:24:06.131Z,-8.40
2023-02-11T03:26:32.683Z,-8.19
2023-02-11T03:29:08.064Z,-8.24
2023-02-11T03:31:47.774Z,-8.21
2023-02-11T03:34:41.186Z,-8.15
2023-02-11T03:37:36.883Z,-8.19
2023-02-11T03:40:06.622Z,-8.14
2023-02-11T03:42:39.855Z,-8.30
2023-02-11T03:45:10.761Z,-8.24
2023-02-11T03:47:40.237Z,-8.16
2023-02-11T03:50:09.110Z,-8.07
2023-02-11T03:52:37.962Z,-8.07
2023-02-11T03:55:11.005Z,-8.16
2023-02-11T03:57:38.129Z,-8.18
2023-02-11T04:00:05.830Z,-8.27
2023-02-11T04:02:35.568Z,-8.40
2023-02-11T04:05:02.603Z,-8.26
2023-02-11T04:07:29.479Z,-8.24
2023-02-11T04:09:56.043Z,-8.20
2023-02-11T04:12:22.737Z,-8.23
2023-02-11T04:14:49.327Z,-8.11
2023-02-11T04:17:16.517Z,-8.23
2023-02-11T04:19:43.187Z,-8.26
2023-02-11T04:22:10.180Z,-8.21
2023-02-11T04:24:36.856Z,-8.27
2023-02-11T04:27:03.604Z,-8.15
2023-02-11T04:29:30.337Z,-8.21
2023-02-11T04:31:56.944Z,-8.12
2023-02-11T04:34:24.546Z,-8.36
2023-02-11T04:36:51.175Z,-8.24
2023-02-11T04:39:17.717Z,-8.29
2023-02-11T04:41:44.440Z,-8.13
2023-02-11T04:44:11.153Z,-8.23
2023-02-11T04:46:37.797Z,-8.10
2023-02-11T04:49:04.490Z,-8.17
2023-02-11T04:51:31.148Z,-8.21
2023-02-11T04:53:57.779Z,-8.25
2023-02-11T04:56:24.484Z,-8.33
2023-02-11T04:58:51.163Z,-8.25
2023-02-11T05:01:17.863Z,-8.18
2023-02-11T05:03:44.783Z,-8.15
2023-02-11T05:06:11.777Z,-8.13
2023-02-11T05:08:38.630Z,-8.03
2023-02-11T05:11:05.752Z,-7.84
2023-02-11T05:13:32.642Z,-7.73
2023-02-11T05:15:59.374Z,-7.65
2023-02-11T05:18:25.966Z,-7.54
2023-02-11T05:20:52.547Z,-7.50
2023-02-11T05:23:19.178Z,-7.42
2023-02-11T05:25:45.782Z,-7.38
2023-02-11T05:28:12.416Z,-7.28
2023-02-11T05:30:39.077Z,-7.16
2023-02-11T05:33:05.797Z,-7.11
2023-02-11T05:35:32.486Z,-7.05
2023-02-11T05:37:59.077Z,-7.01
2023-02-11T05:40:25.691Z,-6.94
2023-02-11T05:42:52.242Z,-6.90
2023-02-11T05:45:18.838Z,-6.87
2023-02-11T05:47:45.545Z,-6.89
2023-02-11T05:50:12.181Z,-6.89
2023-02-11T05:52:38.752Z,-6.89
2023-02-11T05:55:06.000Z,-6.86
2023-02-11T05:57:32.642Z,-6.81
2023-02-11T05:59:59.351Z,-6.76
2023-02-11T06:02:26.066Z,-6.78
2023-02-11T06:04:52.710Z,-6.74
2023-02-11T06:07:19.823Z,-6.71
2023-02-11T06:09:46.440Z,-6.69
2023-02-11T06:12:13.163Z,-6.68
2023-02-11T06:14:39.769Z,-6.63
2023-02-11T06:17:06.373Z,-6.58
2023-02-11T06:19:32.943Z,-6.59
2023-02-11T06:21:59.637Z,-6.57
2023-02-11T06:24:50.986Z,-6.55
2023-02-11T06:27:12.841Z,-6.53
2023-02-11T06:29:39.518Z,-6.40
2023-02-11T06:32:06.223Z,-6.32
2023-02-11T06:34:32.871Z,-6.26
2023-02-11T06:36:59.429Z,-6.22
2023-02-11T06:39:25.941Z,-6.18
2023-02-11T06:41:52.720Z,-6.11
2023-02-11T06:44:19.291Z,-6.05
2023-02-11T06:46:46.038Z,-5.98
2023-02-11T06:49:13.419Z,-5.90
2023-02-11T06:51:40.124Z,-5.84
2023-02-11T06:54:07.385Z,-5.74
2023-02-11T06:56:34.396Z,-5.68
2023-02-11T06:59:01.132Z,-5.58
2023-02-11T07:01:28.583Z,-5.51
2023-02-11T07:03:55.236Z,-5.48
2023-02-11T07:06:24.802Z,-5.34
2023-02-11T07:08:51.552Z,-5.25
2023-02-11T07:11:24.482Z,-5.11
2023-02-11T07:13:52.013Z,-4.99
2023-02-11T07:16:19.126Z,-4.89
2023-02-11T07:18:47.116Z,-4.70
2023-02-11T07:21:16.654Z,-4.59
2023-02-11T07:23:43.670Z,-4.48
2023-02-11T07:26:13.007Z,-4.31
2023-02-11T07:28:40.767Z,-4.15
2023-02-11T07:31:07.976Z,-3.97
2023-02-11T07:33:35.348Z,-3.81
2023-02-11T07:36:01.954Z,-3.60
2023-02-11T07:38:28.558Z,-3.43
2023-02-11T07:40:55.131Z,-3.31
2023-02-11T07:43:21.803Z,-3.15
2023-02-11T07:45:48.766Z,-3.01
2023-02-11T07:48:15.541Z,-2.88
2023-02-11T07:50:42.206Z,-2.81
2023-02-11T07:53:08.771Z,-2.65
2023-02-11T07:55:35.633Z,-2.48
2023-02-11T07:58:02.146Z,-2.33
2023-02-11T08:00:28.695Z,-2.15
2023-02-11T08:02:57.313Z,-1.98
2023-02-11T08:05:24.204Z,-1.80
2023-02-11T08:07:54.702Z,-1.58
2023-02-11T08:10:21.591Z,-1.44
2023-02-11T08:12:48.338Z,-1.40
2023-02-11T08:15:15.054Z,-1.20
2023-02-11T08:17:41.594Z,-0.92
2023-02-11T08:20:08.505Z,-0.77
2023-02-11T08:22:36.501Z,-0.76
2023-02-11T08:25:03.271Z,-0.63
2023-02-11T08:27:29.874Z,-0.34
2023-02-11T08:29:56.597Z,-0.12
2023-02-11T08:32:25.603Z,0.08
2023-02-11T08:34:53.072Z,0.30
2023-02-11T08:37:20.337Z,0.49
2023-02-11T08:39:47.483Z,0.59
2023-02-11T08:42:15.732Z,0.73
2023-02-11T08:44:43.068Z,0.88
2023-02-11T08:47:09.783Z,1.01
2023-02-11T08:49:36.485Z,1.09
2023-02-11T08:52:04.265Z,1.31
2023-02-11T08:54:31.751Z,1.52
2023-02-11T08:56:58.301Z,1.75
2023-02-11T08:59:25.058Z,2.01
2023-02-11T09:01:51.980Z,2.12
2023-02-11T09:04:18.957Z,2.24
2023-02-11T09:06:45.852Z,2.43
2023-02-11T09:09:14.050Z,2.51
2023-02-11T09:11:41.971Z,2.58
2023-02-11T09:14:15.010Z,2.69
2023-02-11T09:16:43.161Z,2.93
2023-02-11T09:19:10.694Z,3.05
2023-02-11T09:21:37.345Z,3.24
2023-02-11T09:24:04.262Z,3.41
2023-02-11T09:26:33.817Z,3.52
2023-02-11T09:29:01.170Z,3.45
2023-02-11T09:31:30.194Z,3.69
2023-02-11T09:34:02.860Z,3.85
2023-02-11T09:36:33.060Z,4.03
2023-02-11T09:39:01.178Z,4.34
2023-02-11T09:41:58.613Z,4.56
2023-02-11T09:44:28.392Z,4.46
2023-02-11T09:46:58.631Z,4.95
2023-02-11T09:49:42.217Z,5.36
2023-02-11T09:52:25.034Z,5.31
2023-02-11T09:55:01.969Z,5.75
2023-02-11T09:57:36.525Z,5.67
2023-02-11T10:00:18.082Z,5.67
2023-02-11T10:03:06.421Z,5.40
2023-02-11T10:05:35.871Z,5.45
2023-02-11T10:08:13.645Z,5.54
2023-02-11T10:10:46.977Z,5.54
2023-02-11T10:13:40.859Z,5.34
2023-02-11T10:16:24.058Z,5.10
2023-02-11T10:19:11.359Z,5.33
2023-02-11T10:22:05.553Z,5.31
2023-02-11T10:24:33.726Z,5.60
2023-02-11T10:27:00.279Z,5.41
2023-02-11T10:29:40.678Z,5.85
2023-02-11T10:32:43.156Z,6.16
2023-02-11T10:35:18.059Z,6.41
2023-02-11T10:37:45.597Z,6.53
2023-02-11T10:40:32.504Z,6.30
2023-02-11T10:43:03.957Z,6.33
2023-02-11T10:45:32.779Z,6.35
2023-02-11T10:48:01.628Z,6.32
2023-02-11T10:50:32.555Z,6.43
2023-02-11T10:53:24.394Z,6.51
2023-02-11T10:55:55.918Z,6.56
2023-02-11T10:58:30.618Z,6.31
2023-02-11T11:01:00.034Z,6.46
2023-02-11T11:03:32.245Z,6.31
2023-02-11T11:06:02.137Z,6.33
2023-02-11T11:08:42.637Z,6.01
2023-02-11T11:11:15.094Z,5.78
2023-02-11T11:14:03.812Z,5.68
2023-02-11T11:16:36.651Z,5.46
2023-02-11T11:19:06.155Z,5.33
2023-02-11T11:21:47.719Z,5.45
2023-02-11T11:24:34.406Z,5.51
2023-02-11T11:27:04.186Z,5.33
2023-02-11T11:29:36.702Z,5.18
2023-02-11T11:32:06.832Z,5.77
2023-02-11T11:34:48.404Z,6.37
2023-02-11T11:37:22.710Z,6.75
2023-02-11T11:40:08.124Z,6.74
2023-02-11T11:42:37.444Z,7.40
2023-02-11T11:45:24.916Z,7.03
2023-02-11T11:48:10.714Z,7.71
2023-02-11T11:50:43.510Z,7.79
2023-02-11T11:53:28.928Z,7.71
2023-02-11T11:56:20.165Z,7.66
2023-02-11T11:58:47.183Z,7.61
2023-02-11T12:01:22.795Z,7.42
2023-02-11T12:04:23.179Z,7.27
2023-02-11T12:07:20.825Z,6.89
2023-02-11T12:10:22.861Z,6.62
2023-02-11T12:13:32.700Z,6.27
2023-02-11T12:16:21.404Z,6.88
2023-02-11T12:19:13.960Z,7.14
2023-02-11T12:21:48.537Z,7.30
2023-02-11T12:24:29.684Z,7.19
2023-02-11T12:27:09.850Z,7.53
2023-02-11T12:30:01.931Z,7.54
2023-02-11T12:33:00.986Z,7.55
2023-02-11T12:36:05.125Z,7.10
2023-02-11T12:38:50.980Z,7.46
2023-02-11T12:42:00.501Z,7.27
2023-02-11T12:44:53.239Z,7.24
2023-02-11T12:47:38.099Z,7.14
2023-02-11T12:50:05.252Z,7.17
2023-02-11T12:52:46.794Z,7.15
2023-02-11T12:55:26.920Z,7.28
2023-02-11T12:57:57.050Z,7.03
2023-02-11T13:00:29.212Z,7.04
2023-02-11T13:03:11.079Z,7.14
2023-02-11T13:05:50.171Z,7.28
2023-02-11T13:08:24.964Z,7.33
2023-02-11T13:10:57.788Z,7.46
2023-02-11T13:13:33.480Z,7.31
2023-02-11T13:16:11.815Z,7.18
2023-02-11T13:18:49.591Z,7.07
2023-02-11T13:21:16.473Z,7.23
2023-02-11T13:23:52.278Z,6.82
2023-02-11T13:26:33.344Z,6.70
2023-02-11T13:29:14.802Z,6.57
2023-02-11T13:31:41.645Z,6.44
2023-02-11T13:34:46.668Z,6.51
2023-02-11T13:37:23.895Z,6.50
2023-02-11T13:40:19.720Z,6.30
2023-02-11T13:43:02.728Z,6.10
2023-02-11T13:45:40.056Z,6.09
2023-02-11T13:48:23.733Z,6.09
2023-02-11T13:50:54.365Z,5.95
2023-02-11T13:53:21.385Z,6.04
2023-02-11T13:55:52.179Z,6.15
2023-02-11T13:58:36.449Z,6.10
2023-02-11T14:01:03.503Z,6.16
2023-02-11T14:03:56.952Z,6.14
2023-02-11T14:06:45.208Z,6.12
2023-02-11T14:09:14.630Z,5.94
2023-02-11T14:11:41.700Z,5.95
2023-02-11T14:14:21.781Z,5.93
2023-02-11T14:17:00.501Z,5.85
2023-02-11T14:19:43.753Z,5.81
2023-02-11T14:22:10.265Z,5.73
2023-02-11T14:24:36.744Z,5.75
2023-02-11T14:27:23.210Z,5.80
2023-02-11T14:30:30.903Z,5.87
2023-02-11T14:33:15.972Z,5.76
2023-02-11T14:36:13.122Z,5.49
2023-02-11T14:38:52.913Z,5.40
2023-02-11T14:41:25.813Z,5.29
2023-02-11T14:43:55.714Z,5.33
2023-02-11T14:46:24.516Z,5.25
2023-02-11T14:48:55.386Z,5.13
2023-02-11T14:51:26.667Z,5.09
2023-02-11T14:54:00.648Z,5.05
2023-02-11T14:56:31.223Z,5.11
2023-02-11T14:58:58.705Z,5.15
2023-02-11T15:01:35.408Z,5.12
2023-02-11T15:04:05.487Z,5.03
2023-02-11T15:06:33.426Z,4.86
2023-02-11T15:09:07.864Z,4.82
2023-02-11T15:11:39.897Z,4.73
2023-02-11T15:14:10.052Z,4.64
2023-02-11T15:16:41.413Z,4.62
2023-02-11T15:19:17.055Z,4.51
2023-02-11T15:21:45.858Z,4.50
2023-02-11T15:24:25.551Z,4.43
2023-02-11T15:27:16.251Z,4.33
2023-02-11T15:29:46.691Z,4.29
2023-02-11T15:32:24.926Z,4.28
2023-02-11T15:34:53.929Z,4.23
2023-02-11T15:37:22.164Z,4.13
2023-02-11T15:39:49.378Z,4.05
2023-02-11T15:42:27.913Z,3.96
2023-02-11T15:45:24.734Z,3.77
2023-02-11T15:47:54.468Z,3.62
2023-02-11T15:50:24.481Z,3.56
2023-02-11T15:52:51.974Z,3.45
2023-02-11T15:55:19.570Z,3.30
2023-02-11T15:57:51.354Z,3.20
2023-02-11T16:00:21.198Z,3.13
2023-02-11T16:02:49.681Z,3.09
2023-02-11T16:05:33.533Z,2.97
2023-02-11T16:08:01.721Z,2.95
2023-02-11T16:10:33.491Z,3.02
2023-02-11T16:13:06.205Z,3.07
2023-02-11T16:15:52.628Z,3.07
2023-02-11T16:18:38.468Z,3.09
2023-02-11T16:21:13.109Z,3.13
2023-02-11T16:23:42.450Z,3.10
2023-02-11T16:26:39.383Z,2.94
2023-02-11T16:29:17.907Z,2.78
2023-02-11T16:31:47.368Z,2.73
2023-02-11T16:34:17.072Z,2.61
2023-02-11T16:36:44.006Z,2.51
2023-02-11T16:39:11.238Z,2.43
2023-02-11T16:41:37.853Z,2.30
2023-02-11T16:44:04.756Z,2.23
2023-02-11T16:46:32.016Z,2.15
2023-02-11T16:49:10.288Z,2.00
2023-02-11T16:51:40.406Z,1.91
2023-02-11T16:54:07.059Z,1.79
2023-02-11T16:56:33.591Z,1.76
2023-02-11T16:59:00.732Z,1.72
2023-02-11T17:01:27.394Z,1.61
2023-02-11T17:03:54.062Z,1.59
2023-02-11T17:06:20.732Z,1.34
2023-02-11T17:08:47.332Z,1.31
2023-02-11T17:11:17.124Z,1.29
2023-02-11T17:13:44.107Z,1.33
2023-02-11T17:16:22.602Z,1.31
2023-02-11T17:18:49.525Z,1.27
2023-02-11T17:21:16.350Z,1.21
2023-02-11T17:23:43.557Z,1.15
2023-02-11T17:26:10.328Z,1.15
2023-02-11T17:28:36.955Z,1.06
2023-02-11T17:31:08.695Z,0.98
2023-02-11T17:33:36.360Z,0.92
2023-02-11T17:36:08.006Z,0.87
2023-02-11T17:38:35.359Z,0.75
2023-02-11T17:41:02.848Z,0.69
2023-02-11T17:43:29.412Z,0.61
2023-02-11T17:45:56.070Z,0.58
2023-02-11T17:48:22.716Z,0.52
2023-02-11T17:50:49.347Z,0.52
2023-02-11T17:53:15.902Z,0.52
2023-02-11T17:55:42.459Z,0.45
2023-02-11T17:58:09.057Z,0.50
2023-02-11T18:00:35.656Z,0.54
2023-02-11T18:03:03.318Z,0.61
2023-02-11T18:05:37.459Z,0.59
2023-02-11T18:08:06.056Z,0.64
2023-02-11T18:10:33.570Z,0.78
2023-02-11T18:13:01.343Z,0.90
2023-02-11T18:15:27.975Z,1.06
2023-02-11T18:17:55.837Z,1.13
2023-02-11T18:20:22.463Z,1.19
2023-02-11T18:22:49.068Z,1.30
2023-02-11T18:25:16.130Z,1.35
2023-02-11T18:27:42.932Z,1.34
2023-02-11T18:30:15.397Z,1.30
2023-02-11T18:32:42.103Z,1.29
2023-02-11T18:35:14.814Z,1.28
2023-02-11T18:37:42.648Z,1.36
2023-02-11T18:40:10.521Z,1.34
2023-02-11T18:42:37.113Z,1.39
2023-02-11T18:45:09.647Z,1.39
2023-02-11T18:47:40.623Z,1.39
2023-02-11T18:50:09.185Z,1.46
2023-02-11T18:52:38.967Z,1.52
2023-02-11T18:55:06.643Z,1.58
2023-02-11T18:57:33.268Z,1.70
2023-02-11T19:00:00.081Z,1.65
2023-02-11T19:02:26.978Z,1.62
2023-02-11T19:04:53.511Z,1.75
2023-02-11T19:07:20.267Z,1.79
2023-02-11T19:09:46.774Z,1.82
2023-02-11T19:12:13.484Z,1.79
2023-02-11T19:14:40.082Z,1.83
2023-02-11T19:17:07.691Z,1.91
2023-02-11T19:19:36.140Z,1.91
2023-02-11T19:22:07.918Z,1.94
2023-02-11T19:24:37.312Z,1.98
2023-02-11T19:27:04.964Z,1.98
2023-02-11T19:29:33.448Z,1.97
2023-02-11T19:32:00.080Z,1.97
2023-02-11T19:34:26.769Z,2.00
2023-02-11T19:36:54.393Z,1.99
2023-02-11T19:39:21.076Z,2.04
2023-02-11T19:41:47.598Z,2.02
2023-02-11T19:44:14.746Z,2.07
2023-02-11T19:46:41.443Z,2.06
2023-02-11T19:49:10.030Z,2.12
2023-02-11T19:51:39.415Z,2.06
2023-02-11T19:54:07.106Z,2.06
2023-02-11T19:56:34.417Z,2.08
2023-02-11T19:59:02.908Z,2.08
2023-02-11T20:01:29.472Z,2.09
2023-02-11T20:03:57.495Z,2.15
2023-02-11T20:06:28.071Z,2.14
2023-02-11T20:08:58.635Z,2.13
2023-02-11T20:11:28.124Z,2.17
2023-02-11T20:13:55.128Z,2.21
2023-02-11T20:16:27.087Z,2.19
2023-02-11T20:19:00.948Z,2.18
2023-02-11T20:21:31.620Z,2.19
2023-02-11T20:23:59.207Z,2.20
2023-02-11T20:26:32.229Z,2.23
2023-02-11T20:29:03.590Z,2.25
2023-02-11T20:31:32.319Z,2.24
2023-02-11T20:33:59.914Z,2.29
2023-02-11T20:36:32.414Z,2.32
2023-02-11T20:39:00.376Z,2.37
2023-02-11T20:41:32.012Z,2.44
2023-02-11T20:44:01.743Z,2.43
2023-02-11T20:46:30.327Z,2.44
2023-02-11T20:48:57.633Z,2.45
2023-02-11T20:51:31.495Z,2.49
2023-02-11T20:53:59.450Z,2.54
2023-02-11T20:56:31.495Z,2.61
2023-02-11T20:58:59.298Z,2.65
2023-02-11T21:01:31.760Z,2.65
2023-02-11T21:04:02.257Z,2.68
2023-02-11T21:06:36.349Z,2.73
2023-02-11T21:09:05.011Z,2.78
2023-02-11T21:11:31.738Z,2.79
2023-02-11T21:13:59.196Z,2.85
2023-02-11T21:16:26.948Z,2.84
2023-02-11T21:18:55.422Z,2.92
2023-02-11T21:21:22.259Z,2.94
2023-02-11T21:23:48.815Z,2.95
2023-02-11T21:26:16.978Z,3.08
2023-02-11T21:28:44.371Z,3.11
2023-02-11T21:31:19.465Z,3.13
2023-02-11T21:33:46.095Z,3.19
2023-02-11T21:36:14.070Z,3.06
2023-02-11T21:38:41.217Z,3.14
2023-02-11T21:41:07.845Z,3.11
2023-02-11T21:43:34.576Z,3.15
2023-02-11T21:46:01.553Z,3.15
2023-02-11T21:48:28.546Z,3.19
2023-02-11T21:50:55.170Z,3.24
2023-02-11T21:53:21.738Z,3.26
2023-02-11T21:55:51.613Z,3.28
2023-02-11T21:58:18.311Z,3.31
2023-02-11T22:00:44.905Z,3.33
2023-02-11T22:03:12.366Z,3.41
2023-02-11T22:05:41.146Z,3.41
2023-02-11T22:08:07.755Z,3.43
2023-02-11T22:10:34.310Z,3.50
2023-02-11T22:13:00.848Z,3.47
2023-02-11T22:15:27.474Z,3.43
2023-02-11T22:17:56.132Z,3.45
2023-02-11T22:20:23.091Z,3.39
2023-02-11T22:22:50.868Z,3.38
2023-02-11T22:25:17.914Z,3.33
2023-02-11T22:27:44.693Z,3.35
2023-02-11T22:30:11.823Z,3.36
2023-02-11T22:32:38.380Z,3.30
2023-02-11T22:35:05.189Z,3.31
2023-02-11T22:37:31.797Z,3.28
2023-02-11T22:39:58.333Z,3.26
2023-02-11T22:42:24.915Z,3.31
2023-02-11T22:44:51.578Z,3.33
2023-02-11T22:47:18.110Z,3.24
2023-02-11T22:49:44.674Z,3.31
2023-02-11T22:52:12.295Z,3.34
2023-02-11T22:54:38.972Z,3.41
2023-02-11T22:57:05.569Z,3.44
2023-02-11T22:59:32.130Z,3.58
2023-02-11T23:01:58.830Z,3.56
2023-02-11T23:04:25.430Z,3.63
2023-02-11T23:06:52.141Z,3.51
2023-02-11T23:09:18.768Z,3.49
2023-02-11T23:11:45.574Z,3.52
2023-02-11T23:14:12.353Z,3.59
2023-02-11T23:16:39.405Z,3.55
2023-02-11T23:19:08.435Z,3.58
2023-02-11T23:21:38.133Z,3.57
2023-02-11T23:24:08.428Z,3.60
2023-02-11T23:26:37.235Z,3.60
2023-02-11T23:29:04.034Z,3.60
2023-02-11T23:31:37.857Z,3.63
2023-02-11T23:34:04.825Z,3.67
2023-02-11T23:36:31.561Z,3.71
2023-02-11T23:38:58.128Z,3.67
2023-02-11T23:41:25.299Z,3.70
2023-02-11T23:43:54.070Z,3.71
2023-02-11T23:46:22.021Z,3.76
2023-02-11T23:48:50.033Z,3.75
2023-02-11T23:51:16.693Z,3.81
2023-02-11T23:53:45.751Z,3.82
2023-02-11T23:56:19.143Z,3.86
2023-02-11T23:58:49.043Z,3.86
